Thursday, November 23, 2017, 6:24 PM GMT
Back to Local

CYQM, Moncton, N. B.

Location: , , Canada Lat: 46.117
Local Time: 6:24 PM GMT (18:24 GMT) Lon: -64.683
Time Zone: GMT Elev: 232 ft

Show me the last for .
Show Decoded

2017-11-23 18:00 METAR CYQM 231800Z 25018G25KT 15SM FEW020 SCT240 M00/M06 A2973 RMK SC1CI3 SLP073
                 =
2017-11-23 17:00 METAR CYQM 231700Z 25019G27KT 15SM FEW020 SCT240 M00/M05 A2973 RMK SC2CI1 SLP071
                 =
2017-11-23 16:00 METAR CYQM 231600Z 27017G24KT 15SM FEW020 FEW160 00/M04 A2970 RMK SC2AC1 AC TR
                 SLP063 =
2017-11-23 15:00 METAR CYQM 231500Z 27017G23KT 15SM FEW022 FEW160 00/M03 A2970 RMK SC2AC1 AC TR
                 SLP060 =
2017-11-23 14:00 METAR CYQM 231400Z 26018G28KT 15SM SCT021 SCT160 00/M03 A2967 RMK SC4AC1 AC TR
                 PRESRR SLP052 =
2017-11-23 13:00 METAR CYQM 231300Z 26019G28KT 15SM BKN018 M00/M03 A2963 RMK SC7 PRESRR SLP039 =
2017-11-23 12:00 METAR CYQM 231200Z 28021G28KT 15SM BKN016 00/M02 A2957 RMK SC7 SLP019 =
2017-11-23 11:48 METAR CYQM 231148Z 28019G30KT 15SM OVC018 00/M01 A2957 RMK SC8 PRESRR SLP017 =
2017-11-23 11:20 METAR CYQM 231120Z 27023G28KT 15SM SCT006 BKN013 OVC046 01/M01 A2953 RMK
                 SF3SC4SC1 PRESRR SLP005 =
2017-11-23 11:00 METAR CYQM 231100Z 28021G32KT 15SM -SN BKN006 BKN016 OVC046 01/M01 A2951 RMK
                 SF5SC2SC1 PRESRR SLP998 =
2017-11-23 10:54 METAR CYQM 231054Z 28018G32KT 15SM -SN FEW006 SCT016 BKN046 01/M01 A2951 RMK
                 SF2SC2SC1 PRESRR SLP995 =
2017-11-23 10:00 METAR CYQM 231000Z 28020G29KT 1 3/4SM -SN OVC006 01/M00 A2945 RMK SF8 /S01/
                 SLP975 =
2017-11-23 09:00 METAR CYQM 230900Z 29019G28KT 1 1/2SM -SN OVC005 01/00 A2940 RMK SF8 PRESRR
                 SLP958 =
2017-11-23 08:00 METAR CYQM 230800Z 31014G23KT 1 1/2SM -SN OVC005 01/M00 A2936 RMK SF8 SLP945 =
2017-11-23 07:50 METAR CYQM 230750Z 31016G23KT 1 1/2SM -SN BKN004 VV012 01/00 A2936 RMK SF6SN2
                 SLP945 =
2017-11-23 07:37 METAR CYQM 230737Z 32018G24KT 8SM -SN BKN007 OVC032 02/01 A2936 RMK SF7SC1
                 SLP947 =
2017-11-23 07:14 METAR CYQM 230714Z 33017G27KT 8SM -RA BKN006 OVC015 02/02 A2937 RMK SF6SF2
                 PRESFR SLP948 =
2017-11-23 07:00 METAR CYQM 230700Z 33017G25KT 3SM -RA BR BKN006 OVC014 03/02 A2938 RMK SF6SF2
                 SLP953 =
2017-11-23 06:52 METAR CYQM 230652Z 33018G26KT 3SM -RA BR BKN006 OVC014 03/02 A2939 RMK SF7SF1
                 SLP956 =
2017-11-23 06:00 METAR CYQM 230600Z 34022G30KT 2SM RA BR OVC005 03/03 A2938 RMK SF8 SLP952 =
2017-11-23 05:32 METAR CYQM 230532Z 34023G30KT 2 1/2SM RA BR OVC005 04/03 A2938 RMK SF8 PRESFR
                 SLP952 =
2017-11-23 05:21 METAR CYQM 230521Z 35020G27KT 5SM RA BR OVC006 04/03 A2939 RMK SF8 PRESFR SLP955
                 =
2017-11-23 05:00 METAR CYQM 230500Z 35019G26KT 1 3/4SM +RA BR OVC005 03/03 A2943 RMK SF8 /R30/
                 PRESFR SLP970 =
2017-11-23 04:34 METAR CYQM 230434Z 35018G24KT 1 3/4SM RA BR OVC005 03/03 A2949 RMK SF8 PRESFR
                 SLP988 =
2017-11-23 04:00 METAR CYQM 230400Z 34016KT 1 3/4SM RA BR OVC004 04/03 A2953 RMK SF8 SLP003 =
2017-11-23 03:45 METAR CYQM 230345Z 35020G25KT 1 1/2SM RA BR OVC004 04/03 A2952 RMK SF8 SLP001 =
2017-11-23 03:06 METAR CYQM 230306Z 34021G28KT 1 1/2SM +RA BR OVC004 05/05 A2956 RMK SF8 SLP013 =
2017-11-23 03:00 METAR CYQM 230300Z 33023KT 1 3/4SM RA BR BKN004 OVC030 06/05 A2956 RMK SF7NS1
                 /R10/ SLP012 =
2017-11-23 02:43 METAR CYQM 230243Z 11004KT 2 1/2SM -RA BR BKN005 BKN025 OVC040 12/11 A2955 RMK
                 SF5SC1SC2 SLP010 DENSITY ALT 400FT =
2017-11-23 02:32 METAR CYQM 230232Z 12006KT 2 1/2SM -RA BR FEW006 BKN014 OVC035 12/11 A2956 RMK
                 SF2SF3SC3 PRESFR SLP013 DENSITY ALT 400FT =
2017-11-23 02:15 METAR CYQM 230215Z 14008KT 10SM RA FEW007 SCT026 OVC062 12/12 A2957 RMK
                 SF2SC1SC5 PRESFR SLP018 DENSITY ALT 400FT =
2017-11-23 02:00 METAR CYQM 230200Z 15011KT 12SM -RA FEW007 OVC068 12/11 A2959 RMK SF2AC6 SLP025
                 DENSITY ALT 300FT =
2017-11-23 01:00 METAR CYQM 230100Z 16011KT 12SM -RA FEW008 FEW014 SCT028 BKN058 OVC085 11/11
                 A2965 RMK SF1SC1SC2SC1AC3 SLP043 =
2017-11-23 00:00 METAR CYQM 230000Z 00000KT 12SM -RA BKN009 BKN014 OVC058 09/09 A2970 RMK
                 SF6SC1SC1 SLP061 =
2017-11-22 23:00 METAR CYQM 222300Z 07006KT 12SM -RA BKN012 OVC062 OVC088 09/08 A2974 RMK
                 SC6SC2AC1 AC TR PRESFR SLP075 =
2017-11-22 22:00 METAR CYQM 222200Z 05005KT 12SM -RA FEW009 OVC019 09/08 A2980 RMK SF2SC6 PRESFR
                 SLP095 =
2017-11-22 21:31 METAR CYQM 222131Z 14003KT 12SM -RA BKN014 OVC020 10/09 A2982 RMK SC7SC1 PRESFR
                 SLP103 =
2017-11-22 21:00 METAR CYQM 222100Z 18003KT 12SM -RA SCT014 BKN026 10/09 A2985 RMK SC4SC3 SLP111
                 =
2017-11-22 20:00 METAR CYQM 222000Z 15010KT 12SM -RA SCT041 BKN052 BKN062 10/08 A2988 RMK
                 SC3SC3SC1 SLP122 =
2017-11-22 19:05 METAR CYQM 221905Z 15008KT 12SM -RA FEW064 BKN074 BKN220 11/07 A2990 RMK
                 SC2AC4CI1 SLP129 =
2017-11-22 19:00 METAR CYQM 221900Z 14008KT 15SM BKN074 BKN085 BKN220 12/07 A2991 RMK AC5AC1CI1
                 SLP131 =

Support USWX by starting your Amazon purchase here.